Time,TemperatureF,DewpointF,PressureIn,WindDirection,WindDirectionDegrees,WindSpeedMPH,WindSpeedGustMPH,Humidity,HourlyPrecipIn,Conditions,Clouds,dailyrainin,SoftwareType,DateUTC
2013-08-24 04:42:00,81.0,74.0,29.99,SSE,153,4.0,7.0,79,-99.99,,,-99.99,,2013-08-24 08:42:00,
2013-08-24 04:52:00,81.0,74.0,29.99,SSE,153,4.0,7.0,79,-99.99,,,-99.99,,2013-08-24 08:52:00,
2013-08-24 05:01:00,81.0,74.0,29.99,SSE,153,4.0,7.0,79,-99.99,,,-99.99,,2013-08-24 09:01:00,
2013-08-24 05:44:00,81.0,74.0,29.98,SSE,152,4.0,7.0,79,-99.99,,,-99.99,,2013-08-24 09:44:00,
2013-08-24 05:53:00,80.0,74.0,29.98,SSE,150,3.0,6.0,80,-99.99,,,-99.99,,2013-08-24 09:53:00,
2013-08-24 06:04:00,80.0,74.0,29.98,SSE,150,3.0,6.0,80,-99.99,,,-99.99,,2013-08-24 10:04:00,
2013-08-24 06:13:00,80.0,74.0,29.98,SSE,150,3.0,6.0,80,-99.99,,,-99.99,,2013-08-24 10:13:00,
2013-08-24 06:23:00,80.0,74.0,29.98,SSE,150,3.0,6.0,80,-99.99,,,-99.99,,2013-08-24 10:23:00,
2013-08-24 06:42:00,80.0,74.0,29.99,SSE,162,2.0,4.0,81,-99.99,,,-99.99,,2013-08-24 10:42:00,
2013-08-24 06:53:00,80.0,74.0,29.99,SSE,162,2.0,4.0,81,-99.99,,,-99.99,,2013-08-24 10:53:00,
2013-08-24 07:12:00,79.0,74.0,30.00,SE,144,2.0,4.0,83,-99.99,,,-99.99,,2013-08-24 11:12:00,
2013-08-24 07:22:00,79.0,74.0,30.00,SE,144,2.0,4.0,83,-99.99,,,-99.99,,2013-08-24 11:22:00,
2013-08-24 07:30:00,78.0,74.0,30.02,SSE,148,1.0,2.0,86,-99.99,,,-99.99,,2013-08-24 11:30:00,
2013-08-24 07:42:00,78.0,74.0,30.02,SSE,148,1.0,2.0,86,-99.99,,,-99.99,,2013-08-24 11:42:00,
2013-08-24 07:52:00,78.0,74.0,30.02,SSE,148,1.0,2.0,86,-99.99,,,-99.99,,2013-08-24 11:52:00,
2013-08-24 08:02:00,78.0,74.0,30.02,SSE,148,1.0,2.0,86,-99.99,,,-99.99,,2013-08-24 12:02:00,
2013-08-24 08:12:00,78.0,74.0,30.02,SSE,148,1.0,2.0,86,-99.99,,,-99.99,,2013-08-24 12:12:00,
2013-08-24 08:21:00,78.0,74.0,30.02,SSE,148,1.0,2.0,86,-99.99,,,-99.99,,2013-08-24 12:21:00,
2013-08-24 09:52:00,83.0,74.0,30.05,SSE,150,4.0,9.0,73,-99.99,,,-99.99,,2013-08-24 13:52:00,
2013-08-24 10:02:00,83.0,74.0,30.05,SSE,150,4.0,9.0,73,-99.99,,,-99.99,,2013-08-24 14:02:00,
2013-08-24 10:11:00,83.0,74.0,30.05,SSE,150,4.0,9.0,73,-99.99,,,-99.99,,2013-08-24 14:11:00,
2013-08-24 10:22:00,83.0,74.0,30.05,SSE,150,4.0,9.0,73,-99.99,,,-99.99,,2013-08-24 14:22:00,
2013-08-24 10:52:00,82.0,73.0,30.07,SE,141,6.0,10.0,72,-99.99,,,-99.99,,2013-08-24 14:52:00,
2013-08-24 11:01:00,82.0,73.0,30.07,SE,141,6.0,10.0,72,-99.99,,,-99.99,,2013-08-24 15:01:00,
2013-08-24 11:22:00,82.0,73.0,30.07,SE,141,6.0,10.0,72,-99.99,,,-99.99,,2013-08-24 15:22:00,
2013-08-24 11:34:00,82.0,73.0,30.07,SE,141,6.0,10.0,72,-99.99,,,-99.99,,2013-08-24 15:34:00,
2013-08-24 11:45:00,82.0,73.0,30.07,SE,141,6.0,10.0,72,-99.99,,,-99.99,,2013-08-24 15:45:00,
2013-08-24 11:54:00,82.0,73.0,30.07,SE,141,6.0,10.0,72,-99.99,,,-99.99,,2013-08-24 15:54:00,
2013-08-24 13:52:00,85.0,73.0,30.06,SE,126,6.0,13.0,67,-99.99,,,-99.99,,2013-08-24 17:52:00,
2013-08-24 14:03:00,85.0,73.0,30.06,SE,126,6.0,13.0,67,-99.99,,,-99.99,,2013-08-24 18:03:00,
2013-08-24 14:13:00,85.0,73.0,30.06,SE,126,6.0,13.0,67,-99.99,,,-99.99,,2013-08-24 18:13:00,
2013-08-24 14:22:00,85.0,73.0,30.06,SE,126,6.0,13.0,67,-99.99,,,-99.99,,2013-08-24 18:22:00,
2013-08-24 15:52:00,85.0,74.0,30.03,ESE,119,8.0,11.0,69,-99.99,,,-99.99,,2013-08-24 19:52:00,
2013-08-24 16:02:00,85.0,74.0,30.03,ESE,119,8.0,11.0,69,-99.99,,,-99.99,,2013-08-24 20:02:00,
2013-08-24 16:12:00,85.0,74.0,30.03,ESE,119,8.0,11.0,69,-99.99,,,-99.99,,2013-08-24 20:12:00,
2013-08-24 16:22:00,85.0,74.0,30.03,ESE,119,8.0,11.0,69,-99.99,,,-99.99,,2013-08-24 20:22:00,
2013-08-24 16:32:00,85.0,74.0,30.03,ESE,119,8.0,11.0,69,-99.99,,,-99.99,,2013-08-24 20:32:00,
2013-08-24 16:52:00,84.0,74.0,30.02,ESE,105,7.0,13.0,70,-99.99,,,-99.99,,2013-08-24 20:52:00,
2013-08-24 17:22:00,84.0,74.0,30.02,ESE,105,7.0,13.0,70,-99.99,,,-99.99,,2013-08-24 21:22:00,
2013-08-24 17:34:00,84.0,74.0,30.02,ESE,105,7.0,13.0,70,-99.99,,,-99.99,,2013-08-24 21:34:00,
2013-08-24 17:43:00,84.0,74.0,30.02,ESE,105,7.0,13.0,70,-99.99,,,-99.99,,2013-08-24 21:43:00,
2013-08-24 18:43:00,84.0,74.0,30.03,East,101,8.0,13.0,70,-99.99,,,-99.99,,2013-08-24 22:43:00,
2013-08-24 18:53:00,84.0,74.0,30.03,East,101,8.0,13.0,70,-99.99,,,-99.99,,2013-08-24 22:53:00,
2013-08-24 19:03:00,84.0,74.0,30.03,East,101,8.0,13.0,70,-99.99,,,-99.99,,2013-08-24 23:03:00,
2013-08-24 19:22:00,84.0,73.0,30.03,ESE,104,7.0,15.0,68,-99.99,,,-99.99,,2013-08-24 23:22:00,
2013-08-24 19:34:00,84.0,73.0,30.03,ESE,104,7.0,15.0,68,-99.99,,,-99.99,,2013-08-24 23:34:00,
2013-08-24 19:43:00,84.0,73.0,30.03,ESE,104,7.0,15.0,68,-99.99,,,-99.99,,2013-08-24 23:43:00,
2013-08-24 19:53:00,84.0,73.0,30.03,ESE,104,7.0,15.0,68,-99.99,,,-99.99,,2013-08-24 23:53:00,
2013-08-24 22:12:00,82.0,72.0,30.08,East,94,5.0,10.0,71,-99.99,,,-99.99,,2013-08-25 02:12:00,
2013-08-24 22:22:00,82.0,72.0,30.08,East,94,5.0,10.0,71,-99.99,,,-99.99,,2013-08-25 02:22:00,
2013-08-24 22:33:00,82.0,72.0,30.08,East,94,5.0,10.0,71,-99.99,,,-99.99,,2013-08-25 02:33:00,
2013-08-24 22:52:00,82.0,71.0,30.10,ESE,118,5.0,11.0,68,-99.99,,,-99.99,,2013-08-25 02:52:00,
2013-08-24 23:02:00,82.0,71.0,30.10,ESE,118,5.0,11.0,68,-99.99,,,-99.99,,2013-08-25 03:02:00,
2013-08-24 23:23:00,81.0,71.0,30.10,South,169,4.0,8.0,72,-99.99,,,-99.99,,2013-08-25 03:23:00,
2013-08-24 23:34:00,81.0,71.0,30.10,South,169,4.0,8.0,72,-99.99,,,-99.99,,2013-08-25 03:34:00,
2013-08-24 23:44:00,81.0,71.0,30.10,South,169,4.0,8.0,72,-99.99,,,-99.99,,2013-08-25 03:44:00,
2013-08-24 23:54:00,81.0,71.0,30.10,South,169,4.0,8.0,72,-99.99,,,-99.99,,2013-08-25 03:54:00,